createdAt,value
2023-04-28T00:01:08.095Z,100646.41
2023-04-28T00:06:11.541Z,100646.33
2023-04-28T00:11:14.310Z,100641.92
2023-04-28T00:16:17.175Z,100641.44
2023-04-28T00:21:20.020Z,100637.85
2023-04-28T00:26:22.954Z,100637.21
2023-04-28T00:31:25.888Z,100639.67
2023-04-28T00:36:32.383Z,100641.54
2023-04-28T00:41:35.356Z,100645.23
2023-04-28T00:46:38.210Z,100648.22
2023-04-28T00:51:41.050Z,100646.20
2023-04-28T00:56:44.830Z,100650.28
2023-04-28T01:01:47.628Z,100648.70
2023-04-28T01:06:52.708Z,100649.14
2023-04-28T01:11:55.926Z,100656.73
2023-04-28T01:16:59.143Z,100661.45
2023-04-28T01:22:02.210Z,100657.92
2023-04-28T01:27:05.124Z,100658.61
2023-04-28T01:32:10.299Z,100659.27
2023-04-28T01:37:13.244Z,100660.45
2023-04-28T01:42:16.003Z,100659.36
2023-04-28T01:47:18.772Z,100663.05
2023-04-28T01:52:23.206Z,100666.88
2023-04-28T01:57:26.530Z,100665.40
2023-04-28T02:02:29.643Z,100663.11
2023-04-28T02:07:32.681Z,100662.09
2023-04-28T02:12:35.449Z,100656.86
2023-04-28T02:17:38.295Z,100660.88
2023-04-28T02:22:41.582Z,100661.95
2023-04-28T02:27:45.265Z,100660.92
2023-04-28T02:32:48.601Z,100664.55
2023-04-28T02:37:52.524Z,100664.91
2023-04-28T02:42:55.305Z,100664.42
2023-04-28T02:47:58.602Z,100667.39
2023-04-28T02:53:01.437Z,100671.05
2023-04-28T02:58:04.532Z,100671.98
2023-04-28T03:03:07.744Z,100672.09
2023-04-28T03:08:11.017Z,100673.90
2023-04-28T03:13:14.141Z,100675.33
2023-04-28T03:18:18.028Z,100675.14
2023-04-28T03:23:20.782Z,100673.59
2023-04-28T03:28:23.548Z,100674.14
2023-04-28T03:33:26.340Z,100671.32
2023-04-28T03:38:29.196Z,100680.70
2023-04-28T03:43:34.131Z,100679.44
2023-04-28T03:48:36.959Z,100687.64
2023-04-28T03:53:39.733Z,100684.15
2023-04-28T03:58:44.877Z,100684.58
2023-04-28T04:03:47.981Z,100686.81
2023-04-28T04:08:51.188Z,100693.45
2023-04-28T04:13:53.974Z,100700.23
2023-04-28T04:19:01.773Z,100698.22
2023-04-28T04:24:04.886Z,100697.08
2023-04-28T04:29:07.700Z,100703.29
2023-04-28T04:34:13.802Z,100703.13
2023-04-28T04:39:16.976Z,100703.06
2023-04-28T04:44:20.119Z,100704.45
2023-04-28T04:49:22.970Z,100703.93
2023-04-28T04:54:25.732Z,100705.76
2023-04-28T04:59:28.532Z,100699.82
2023-04-28T05:04:31.412Z,100703.81
2023-04-28T05:09:34.345Z,100705.11
2023-04-28T05:14:39.256Z,100708.70
2023-04-28T05:19:41.989Z,100711.89
2023-04-28T05:24:44.810Z,100708.41
2023-04-28T05:29:47.710Z,100715.77
2023-04-28T05:34:50.606Z,100723.66
2023-04-28T05:39:53.623Z,100729.28
2023-04-28T05:44:56.405Z,100728.02
2023-04-28T05:50:02.644Z,100738.84
2023-04-28T05:55:08.350Z,100740.65
2023-04-28T06:00:16.090Z,100746.09
2023-04-28T06:05:19.285Z,100749.22
2023-04-28T06:10:23.791Z,100749.67
2023-04-28T06:15:26.706Z,100754.20
2023-04-28T06:20:29.770Z,100764.90
2023-04-28T06:25:32.694Z,100707.79
2023-04-28T06:30:35.617Z,100688.01
2023-04-28T06:35:39.667Z,100678.31
2023-04-28T06:40:42.518Z,100670.27
2023-04-28T06:45:45.379Z,100660.98
2023-04-28T06:50:48.228Z,100654.14
2023-04-28T06:55:51.654Z,100654.77
2023-04-28T07:00:54.517Z,100655.91
2023-04-28T07:05:58.140Z,100649.36
2023-04-28T07:11:04.886Z,100659.41
2023-04-28T07:16:08.338Z,100661.96
2023-04-28T07:21:14.657Z,100665.36
2023-04-28T07:26:17.565Z,100658.80
2023-04-28T07:31:24.025Z,100649.23
2023-04-28T07:36:27.011Z,100641.75
2023-04-28T07:41:30.019Z,100643.33
2023-04-28T07:46:33.452Z,100638.61
2023-04-28T07:51:36.527Z,100641.65
2023-04-28T07:56:39.362Z,100637.01
2023-04-28T08:01:43.163Z,100631.98
2023-04-28T08:06:46.583Z,100626.32
2023-04-28T08:11:49.452Z,100627.65
2023-04-28T08:16:52.261Z,100625.64
2023-04-28T08:21:55.051Z,100626.48
2023-04-28T08:26:57.882Z,100623.98
2023-04-28T08:32:04.872Z,100621.04
2023-04-28T08:37:07.971Z,100624.57
2023-04-28T08:42:15.208Z,100614.94
2023-04-28T08:47:21.304Z,100612.39
2023-04-28T08:52:27.260Z,100614.20
2023-04-28T08:57:48.345Z,100613.23
2023-04-28T09:02:51.280Z,100610.63
2023-04-28T09:07:55.785Z,100606.66
2023-04-28T09:12:58.909Z,100603.53
2023-04-28T09:18:06.670Z,100606.88
2023-04-28T09:23:17.566Z,100604.80
2023-04-28T09:28:23.086Z,100603.29
2023-04-28T09:33:26.137Z,100607.68
2023-04-28T09:38:30.476Z,100606.61
2023-04-28T09:43:35.907Z,100606.14
2023-04-28T09:48:38.925Z,100603.52
2023-04-28T09:53:43.115Z,100601.05
2023-04-28T09:58:52.920Z,100596.77
2023-04-28T10:03:58.207Z,100592.23
2023-04-28T10:09:02.091Z,100580.98
2023-04-28T10:14:06.034Z,100580.64
2023-04-28T10:19:10.568Z,100573.67
2023-04-28T10:24:22.637Z,100576.83
2023-04-28T10:29:25.923Z,100576.21
2023-04-28T10:34:30.212Z,100565.01
2023-04-28T10:39:35.347Z,100562.81
2023-04-28T10:44:44.550Z,100566.19
2023-04-28T10:49:57.765Z,100563.68
2023-04-28T10:55:40.334Z,100564.25
2023-04-28T11:00:45.389Z,100561.70
2023-04-28T11:06:29.337Z,100567.25
2023-04-28T11:11:38.928Z,100566.64
2023-04-28T11:16:57.559Z,100559.73
2023-04-28T11:22:04.465Z,100559.25
2023-04-28T11:27:07.408Z,100556.71
2023-04-28T11:32:11.035Z,100556.42
2023-04-28T11:37:18.312Z,100553.64
2023-04-28T11:42:27.262Z,100547.08
2023-04-28T11:47:32.737Z,100545.86
2023-04-28T11:52:36.112Z,100546.42
2023-04-28T11:57:39.981Z,100544.88
2023-04-28T12:02:43.161Z,100546.20
2023-04-28T12:07:47.065Z,100553.00
2023-04-28T12:12:53.207Z,100551.60
2023-04-28T12:17:57.047Z,100545.80
2023-04-28T12:23:03.110Z,100539.23
2023-04-28T12:28:10.926Z,100531.20
2023-04-28T12:33:25.628Z,100527.31
2023-04-28T12:38:30.905Z,100513.18
2023-04-28T12:43:34.747Z,100509.85
2023-04-28T12:48:38.554Z,100504.33
2023-04-28T12:53:41.303Z,100503.04
2023-04-28T12:58:44.220Z,100496.66
2023-04-28T13:03:48.659Z,100496.57
2023-04-28T13:08:51.986Z,100490.45
2023-04-28T13:13:56.732Z,100483.98
2023-04-28T13:19:02.906Z,100474.75
2023-04-28T13:24:06.036Z,100471.02
2023-04-28T13:29:09.565Z,100468.96
2023-04-28T13:34:19.053Z,100466.02
2023-04-28T13:39:22.218Z,100465.19
2023-04-28T13:44:24.989Z,100455.73
2023-04-28T13:49:28.236Z,100447.39
2023-04-28T13:54:31.438Z,100439.73
2023-04-28T13:59:34.372Z,100443.02
2023-04-28T14:04:37.737Z,100437.24
2023-04-28T14:09:41.582Z,100431.92
2023-04-28T14:14:49.166Z,100428.11
2023-04-28T14:19:56.409Z,100423.58
2023-04-28T14:24:59.306Z,100420.41
2023-04-28T14:30:02.358Z,100421.34
2023-04-28T14:35:06.390Z,100419.72
2023-04-28T14:40:10.403Z,100421.65
2023-04-28T14:45:14.016Z,100420.64
2023-04-28T14:50:16.918Z,100415.31
2023-04-28T14:55:21.032Z,100410.25
2023-04-28T15:00:23.954Z,100404.87
2023-04-28T15:05:27.299Z,100404.70
2023-04-28T15:10:39.530Z,100402.20
2023-04-28T15:15:42.742Z,100394.97
2023-04-28T15:20:45.843Z,100392.31
2023-04-28T15:25:53.257Z,100388.64
2023-04-28T15:30:56.380Z,100378.98
2023-04-28T15:35:59.201Z,100377.98
2023-04-28T15:41:02.730Z,100376.06
2023-04-28T15:46:09.433Z,100373.21
2023-04-28T15:51:14.896Z,100370.59
2023-04-28T15:56:19.700Z,100367.31
2023-04-28T16:01:24.625Z,100369.19
2023-04-28T16:06:27.801Z,100366.61
2023-04-28T16:11:30.889Z,100362.98
2023-04-28T16:16:34.495Z,100361.89
2023-04-28T16:21:37.329Z,100354.01
2023-04-28T16:26:40.588Z,100349.51
2023-04-28T16:31:45.072Z,100347.36
2023-04-28T16:36:48.170Z,100348.70
2023-04-28T16:41:51.198Z,100351.34
2023-04-28T16:46:54.278Z,100349.29
2023-04-28T16:52:03.881Z,100346.91
2023-04-28T16:57:08.113Z,100341.86
2023-04-28T17:02:12.296Z,100338.41
2023-04-28T17:07:17.586Z,100333.98
2023-04-28T17:12:23.430Z,100332.80
2023-04-28T17:17:26.528Z,100329.22
2023-04-28T17:22:31.920Z,100329.52
2023-04-28T17:27:35.476Z,100326.08
2023-04-28T17:32:38.742Z,100321.73
2023-04-28T17:37:42.103Z,100322.23
2023-04-28T17:42:44.827Z,100321.32
2023-04-28T17:47:53.179Z,100319.56
2023-04-28T17:52:56.123Z,100325.73
2023-04-28T17:58:01.621Z,100325.92
2023-04-28T18:03:04.576Z,100326.67
2023-04-28T18:08:09.445Z,100330.88
2023-04-28T18:13:12.248Z,100333.19
2023-04-28T18:18:17.349Z,100326.09
2023-04-28T18:23:20.373Z,100326.33
2023-04-28T18:28:24.830Z,100328.50
2023-04-28T18:33:29.860Z,100330.66
2023-04-28T18:38:35.297Z,100331.03
2023-04-28T18:43:38.110Z,100330.61
2023-04-28T18:48:43.128Z,100335.71
2023-04-28T18:53:47.479Z,100336.14
2023-04-28T18:58:50.775Z,100328.19
2023-04-28T19:03:53.696Z,100329.92
2023-04-28T19:08:57.462Z,100326.66
2023-04-28T19:14:00.219Z,100325.11
2023-04-28T19:19:03.235Z,100320.56
2023-04-28T19:24:06.792Z,100324.37
2023-04-28T19:29:09.538Z,100324.55
2023-04-28T19:34:12.589Z,100322.98
2023-04-28T19:39:15.356Z,100317.23
2023-04-28T19:44:18.232Z,100316.52
2023-04-28T19:49:22.871Z,100315.15
2023-04-28T19:54:26.399Z,100318.26
2023-04-28T19:59:29.220Z,100321.86
2023-04-28T20:04:32.446Z,100326.15
2023-04-28T20:09:38.981Z,100327.70
2023-04-28T20:14:41.741Z,100326.42
2023-04-28T20:19:44.578Z,100329.30
2023-04-28T20:24:47.572Z,100331.28
2023-04-28T20:29:50.973Z,100330.52
2023-04-28T20:34:54.386Z,100330.95
2023-04-28T20:39:57.838Z,100330.83
2023-04-28T20:45:00.792Z,100330.69
2023-04-28T20:50:06.630Z,100321.05
2023-04-28T20:55:10.606Z,100316.78
2023-04-28T21:00:13.561Z,100316.00
2023-04-28T21:05:17.752Z,100319.52
2023-04-28T21:10:20.663Z,100319.75
2023-04-28T21:15:23.558Z,100313.19
2023-04-28T21:20:26.690Z,100313.91
2023-04-28T21:25:29.585Z,100306.50
2023-04-28T21:30:32.344Z,100306.58
2023-04-28T21:35:35.183Z,100307.63
2023-04-28T21:40:37.897Z,100305.08
2023-04-28T21:45:40.683Z,100302.16
2023-04-28T21:50:43.627Z,100304.94
2023-04-28T21:55:47.525Z,100306.34
2023-04-28T22:00:51.369Z,100305.48
2023-04-28T22:05:55.351Z,100297.36
2023-04-28T22:10:58.282Z,100297.37
2023-04-28T22:16:01.986Z,100296.68
2023-04-28T22:21:07.286Z,100288.55
2023-04-28T22:26:10.140Z,100283.20
2023-04-28T22:31:13.569Z,100282.00
2023-04-28T22:36:16.699Z,100278.02
2023-04-28T22:41:19.441Z,100277.56
2023-04-28T22:46:22.269Z,100275.67
2023-04-28T22:51:25.120Z,100273.96
2023-04-28T22:56:28.186Z,100269.48
2023-04-28T23:01:31.990Z,100271.56
2023-04-28T23:06:35.186Z,100263.45
2023-04-28T23:11:37.961Z,100260.85
2023-04-28T23:16:41.185Z,100263.45
2023-04-28T23:21:44.627Z,100259.13
2023-04-28T23:26:47.364Z,100251.54
2023-04-28T23:31:55.057Z,100243.77
2023-04-28T23:36:58.605Z,100236.70
2023-04-28T23:42:02.551Z,100234.80
2023-04-28T23:47:05.292Z,100228.95
2023-04-28T23:52:08.114Z,100225.87
2023-04-28T23:57:11.175Z,100222.61
